This is the latest recevied weather packets stored in our database for station/object F4ETJ-1. If no packets are shown the sender has not sent any weather packets the latest 10 day(s).
| Time | Temp. | Humidity | Pressure | Rain* | Wind** | Luminosity | Snow |
|---|---|---|---|---|---|---|---|
| 1787582516 | 25° C | 71% | 1004.9 hPa | 0 mm | - | - | - |
| 1787582156 | 25.56° C | 70% | 1004.9 hPa | 0 mm | - | - | - |
| 1787581795 | 26.67° C | 65% | 1004.7 hPa | 0 mm | - | - | - |
| 1787581435 | 26.67° C | 64% | 1004.5 hPa | 0 mm | - | - | - |
| 1787581074 | 27.22° C | 64% | 1004.5 hPa | 0 mm | - | - | - |
| 1787580714 | 27.22° C | 65% | 1004.7 hPa | 0 mm | - | - | - |
| 1787580354 | 27.22° C | 64% | 1004.8 hPa | 0 mm | - | - | - |
| 1787579993 | 27.78° C | 63% | 1004.2 hPa | 0 mm | - | - | - |
| 1787579633 | 27.78° C | 61% | 1004 hPa | 0 mm | - | - | - |
| 1787579273 | 28.33° C | 60% | 1004.2 hPa | 0 mm | - | - | - |
| 1787578912 | 29.44° C | 58% | 1004.5 hPa | 0 mm | - | - | - |
| 1787578552 | 30° C | 54% | 1004.6 hPa | 0 mm | - | - | - |
| 1787578192 | 31.67° C | 46% | 1004.7 hPa | 0 mm | - | - | - |
| 1787577831 | 32.22° C | 45% | 1004.7 hPa | 0 mm | - | - | - |
| 1787577471 | 32.22° C | 46% | 1004.9 hPa | 0 mm | - | - | - |
| 1787577111 | 31.67° C | 47% | 1005 hPa | 0 mm | - | - | - |
| 1787576750 | 31.67° C | 46% | 1004.9 hPa | 0 mm | - | - | - |
| 1787576390 | 31.67° C | 49% | 1005.1 hPa | 0 mm | - | - | - |
| 1787576030 | 31.11° C | 54% | 1005.2 hPa | 0 mm | - | - | - |
| 1787575669 | 31.11° C | 53% | 1005.2 hPa | 0 mm | - | - | - |
| 1787575309 | 30.56° C | 55% | 1005.2 hPa | 0 mm | - | - | - |
| 1787574949 | 30° C | 56% | 1005.3 hPa | 0 mm | - | - | - |
| 1787574588 | 30° C | 57% | 1005.4 hPa | 0 mm | - | - | - |
| 1787574228 | 29.44° C | 59% | 1005.4 hPa | 0 mm | - | - | - |
| 1787573868 | 29.44° C | 59% | 1005.4 hPa | 0 mm | - | - | - |
* Rain latest hour (hover to see other rain measurements)
** Current wind speed in m/s (hover to see current wind gust speed)